Time;durP1;ratioP1;P1;durP2;ratioP2;P2;SDS_P1;SDS_P2;PMS_P1;PMS_P2;Temp;Humidity;BMP_temperature;BMP_pressure;BME280_temperature;BME280_humidity;BME280_pressure;Samples;Min_cycle;Max_cycle;Signal;HPM_P1;HPM_P2
2022/12/10 00:01:09;;;;;;;38.40;18.83;;;-0.20;99.90;;;;;;5051503;28;20940;-65
2022/12/10 00:03:37;;;;;;;30.10;15.97;;;-0.10;99.90;;;;;;5051959;28;20825;-64
2022/12/10 00:06:06;;;;;;;36.77;18.33;;;-0.10;99.90;;;;;;5051832;28;20462;-65
2022/12/10 00:08:34;;;;;;;37.80;20.13;;;-0.20;99.90;;;;;;5052270;28;20454;-65
2022/12/10 00:11:04;;;;;;;39.87;19.07;;;-0.20;99.90;;;;;;5052004;28;20455;-65
2022/12/10 00:13:30;;;;;;;32.87;16.63;;;-0.20;99.90;;;;;;5052075;28;20447;-65
2022/12/10 00:16:00;;;;;;;38.10;16.87;;;-0.20;99.90;;;;;;5051415;28;20515;-64
2022/12/10 00:18:28;;;;;;;33.27;16.67;;;-0.10;99.90;;;;;;5051725;28;20549;-64
2022/12/10 00:20:55;;;;;;;34.80;16.97;;;-0.10;99.90;;;;;;5051591;28;20465;-64
2022/12/10 00:23:21;;;;;;;37.83;18.27;;;-0.10;99.90;;;;;;5051676;28;20452;-65
2022/12/10 00:25:48;;;;;;;38.90;17.70;;;-0.10;99.90;;;;;;5051455;28;20493;-64
2022/12/10 00:28:15;;;;;;;37.93;17.33;;;-0.10;99.90;;;;;;5051452;28;20467;-64
2022/12/10 00:30:41;;;;;;;40.47;18.13;;;-0.10;99.90;;;;;;5051269;28;20450;-65
2022/12/10 00:33:08;;;;;;;33.63;16.37;;;-0.10;99.90;;;;;;5051408;28;20493;-65
2022/12/10 00:35:37;;;;;;;37.03;17.57;;;-0.10;99.90;;;;;;5051031;28;20486;-64
2022/12/10 00:38:04;;;;;;;39.40;17.33;;;-0.10;99.90;;;;;;5051320;28;20459;-65
2022/12/10 00:40:31;;;;;;;40.70;17.80;;;0.00;99.90;;;;;;5051391;28;20459;-65
2022/12/10 00:42:58;;;;;;;33.60;17.00;;;0.00;99.90;;;;;;5050637;28;20456;-65
2022/12/10 00:45:24;;;;;;;34.37;17.53;;;0.00;99.90;;;;;;5050959;28;20477;-65
2022/12/10 00:47:51;;;;;;;36.23;18.23;;;0.00;99.90;;;;;;5051667;28;20824;-65
2022/12/10 00:50:18;;;;;;;35.17;16.67;;;0.00;99.90;;;;;;5051040;28;20455;-65
2022/12/10 00:52:46;;;;;;;35.17;16.50;;;0.00;99.90;;;;;;5051070;28;20498;-64
2022/12/10 00:55:12;;;;;;;31.90;14.30;;;0.00;99.90;;;;;;5050857;28;20486;-65
2022/12/10 00:57:39;;;;;;;31.10;16.23;;;0.00;99.90;;;;;;5051339;28;20467;-65
2022/12/10 01:00:07;;;;;;;30.50;14.80;;;-0.10;99.90;;;;;;5050968;28;20458;-65
2022/12/10 01:02:34;;;;;;;30.23;14.53;;;-0.10;99.90;;;;;;5043171;28;20451;-64
2022/12/10 01:05:01;;;;;;;30.23;15.67;;;-0.20;99.90;;;;;;5050751;28;20517;-64
2022/12/10 01:07:27;;;;;;;30.97;15.43;;;-0.30;99.90;;;;;;5051007;28;20854;-64
2022/12/10 01:09:56;;;;;;;34.40;15.30;;;-0.30;99.90;;;;;;5050982;28;20462;-64
2022/12/10 01:12:22;;;;;;;31.93;16.40;;;-0.40;99.90;;;;;;5048993;28;20495;-65
2022/12/10 01:14:49;;;;;;;32.50;16.33;;;-0.40;99.90;;;;;;5051162;28;20484;-64
2022/12/10 01:17:16;;;;;;;26.90;14.63;;;-0.50;99.90;;;;;;5050793;28;20462;-65
2022/12/10 01:19:42;;;;;;;29.00;14.70;;;-0.50;99.90;;;;;;5050320;28;20505;-65
2022/12/10 01:22:09;;;;;;;29.60;15.77;;;-0.60;99.90;;;;;;5050791;28;20463;-64
2022/12/10 01:24:36;;;;;;;29.50;14.30;;;-0.60;99.90;;;;;;5050724;28;20840;-64
2022/12/10 01:27:04;;;;;;;33.90;16.87;;;-0.60;99.90;;;;;;5050945;28;20755;-64
2022/12/10 01:29:31;;;;;;;33.87;15.70;;;-0.60;99.90;;;;;;5050785;28;20463;-64
2022/12/10 01:31:58;;;;;;;30.30;16.00;;;-0.60;99.90;;;;;;5050330;28;20492;-64
2022/12/10 01:34:26;;;;;;;29.00;14.93;;;-0.60;99.90;;;;;;5050519;28;20475;-64
2022/12/10 01:36:54;;;;;;;31.73;15.17;;;-0.50;99.90;;;;;;5050790;28;20504;-65
2022/12/10 01:39:22;;;;;;;31.20;16.70;;;-0.50;99.90;;;;;;5050406;28;21152;-64
2022/12/10 01:41:51;;;;;;;31.70;14.77;;;-0.50;99.90;;;;;;5049983;28;20486;-65
2022/12/10 01:44:55;;;;;;;29.93;14.40;;;-0.50;99.90;;;;;;5050349;28;20477;-64
2022/12/10 01:47:24;;;;;;;29.60;15.30;;;-0.50;99.90;;;;;;5049491;28;20483;-64
2022/12/10 01:49:50;;;;;;;29.47;15.67;;;-0.50;99.90;;;;;;5050986;28;20459;-64
2022/12/10 01:52:17;;;;;;;29.63;14.53;;;-0.50;99.90;;;;;;5050474;28;20900;-64
2022/12/10 01:54:46;;;;;;;34.70;15.13;;;-0.40;99.90;;;;;;5050471;28;20528;-64
2022/12/10 01:57:15;;;;;;;28.07;14.73;;;-0.40;99.90;;;;;;5050282;28;20954;-65
2022/12/10 01:59:44;;;;;;;31.97;16.70;;;-0.40;99.90;;;;;;5050207;28;20455;-64
2022/12/10 02:02:17;;;;;;;31.37;15.93;;;-0.40;99.90;;;;;;5050166;28;20449;-64
2022/12/10 02:04:56;;;;;;;29.60;15.27;;;-0.50;99.90;;;;;;5049972;28;20891;-64
2022/12/10 02:07:27;;;;;;;34.53;15.10;;;-0.40;99.90;;;;;;5050049;28;20451;-64
2022/12/10 02:10:02;;;;;;;27.53;15.33;;;-0.50;99.90;;;;;;5050418;28;20455;-64
2022/12/10 02:12:35;;;;;;;29.33;15.30;;;-0.50;99.90;;;;;;5050405;28;20483;-65
2022/12/10 02:15:07;;;;;;;28.17;14.90;;;-0.50;99.90;;;;;;5050198;28;20847;-65
2022/12/10 02:17:39;;;;;;;28.90;16.50;;;-0.50;99.90;;;;;;5050279;28;20463;-65
2022/12/10 02:20:13;;;;;;;25.63;14.17;;;-0.40;99.90;;;;;;5049938;28;20463;-64
2022/12/10 02:22:45;;;;;;;29.47;15.17;;;-0.40;99.90;;;;;;5050543;28;20519;-65
2022/12/10 02:25:14;;;;;;;30.77;15.30;;;-0.40;99.90;;;;;;5053900;28;20478;-65
2022/12/10 02:27:48;;;;;;;26.30;14.83;;;-0.40;99.90;;;;;;5054008;28;20841;-65
2022/12/10 02:30:16;;;;;;;26.40;14.80;;;-0.40;99.90;;;;;;5053472;28;20541;-64
2022/12/10 02:32:46;;;;;;;31.77;14.60;;;-0.30;99.90;;;;;;5053802;28;20491;-65
2022/12/10 02:35:17;;;;;;;27.73;14.50;;;-0.30;99.90;;;;;;5053608;28;20487;-64
2022/12/10 02:37:49;;;;;;;26.10;13.47;;;-0.20;99.90;;;;;;5053689;28;20873;-65
2022/12/10 02:40:20;;;;;;;26.60;13.47;;;-0.20;99.90;;;;;;5053830;28;20514;-64
2022/12/10 02:42:50;;;;;;;28.20;14.37;;;-0.20;99.90;;;;;;5053233;28;20982;-64
2022/12/10 02:45:20;;;;;;;27.77;14.33;;;-0.20;99.90;;;;;;5053090;28;21080;-64
2022/12/10 02:47:48;;;;;;;24.93;14.50;;;-0.10;99.90;;;;;;5053838;28;20450;-64
2022/12/10 02:50:16;;;;;;;25.60;13.40;;;-0.10;99.90;;;;;;5053342;28;20463;-64
2022/12/10 02:52:43;;;;;;;29.33;14.40;;;-0.10;99.90;;;;;;5053509;28;20480;-64
2022/12/10 02:55:12;;;;;;;23.97;13.00;;;-0.10;99.90;;;;;;5052826;28;20937;-64
2022/12/10 02:57:46;;;;;;;23.70;13.00;;;-0.10;99.90;;;;;;5053241;28;20566;-64
2022/12/10 03:00:18;;;;;;;26.23;13.53;;;-0.10;99.90;;;;;;5052920;28;20880;-65
2022/12/10 03:03:01;;;;;;;25.97;13.53;;;-0.10;99.90;;;;;;5046144;28;20454;-64
2022/12/10 03:05:36;;;;;;;30.43;14.60;;;-0.10;99.90;;;;;;5052991;28;20476;-65
2022/12/10 03:08:09;;;;;;;23.50;13.50;;;0.00;99.90;;;;;;5053064;28;20480;-65
2022/12/10 03:10:43;;;;;;;22.30;12.53;;;0.00;99.90;;;;;;5053064;28;20655;-65
2022/12/10 03:13:15;;;;;;;22.57;12.40;;;0.00;99.90;;;;;;5053411;28;20984;-64
2022/12/10 03:15:45;;;;;;;20.90;12.63;;;0.00;99.90;;;;;;5052032;28;20475;-64
2022/12/10 03:18:15;;;;;;;19.17;12.50;;;0.00;99.90;;;;;;5052994;28;20832;-65
2022/12/10 03:20:46;;;;;;;22.30;12.10;;;0.10;99.90;;;;;;5053060;28;20460;-64
2022/12/10 03:23:19;;;;;;;22.23;12.73;;;0.10;99.90;;;;;;5052918;28;20462;-64
2022/12/10 03:25:49;;;;;;;26.50;13.97;;;0.10;99.90;;;;;;5052706;28;20472;-65
2022/12/10 03:28:18;;;;;;;24.53;12.40;;;0.10;99.90;;;;;;5052896;28;20455;-64
2022/12/10 03:30:47;;;;;;;24.17;12.40;;;0.10;99.90;;;;;;5052013;28;20464;-64
2022/12/10 03:33:16;;;;;;;18.63;11.63;;;0.00;99.90;;;;;;5053007;28;20906;-64
2022/12/10 03:35:43;;;;;;;19.53;11.37;;;0.00;99.90;;;;;;5052097;28;20470;-64
2022/12/10 03:38:10;;;;;;;24.50;13.07;;;0.00;99.90;;;;;;5052783;28;20456;-64
2022/12/10 03:40:37;;;;;;;22.40;12.50;;;0.10;99.90;;;;;;5052265;28;20450;-64
2022/12/10 03:43:04;;;;;;;21.20;11.97;;;0.00;99.90;;;;;;5052210;28;21119;-64
2022/12/10 03:45:31;;;;;;;24.13;13.30;;;0.00;99.90;;;;;;5051814;28;21002;-64
2022/12/10 03:47:57;;;;;;;21.77;11.97;;;0.00;99.90;;;;;;5052731;28;20467;-64
2022/12/10 03:50:25;;;;;;;23.87;11.70;;;0.10;99.90;;;;;;5052105;28;20458;-64
2022/12/10 03:52:52;;;;;;;23.50;11.60;;;0.00;99.90;;;;;;5052469;28;20494;-64
2022/12/10 03:55:19;;;;;;;25.30;13.10;;;0.10;99.90;;;;;;5051672;28;20486;-64
2022/12/10 03:57:45;;;;;;;21.80;13.17;;;0.10;99.90;;;;;;5052378;28;20463;-64
2022/12/10 04:00:13;;;;;;;21.40;11.63;;;0.10;99.90;;;;;;5048028;28;20460;-64
2022/12/10 04:02:40;;;;;;;21.43;11.43;;;0.10;99.90;;;;;;5051209;28;20505;-64
2022/12/10 04:05:07;;;;;;;20.50;11.80;;;0.10;99.90;;;;;;5051436;28;20468;-65
2022/12/10 04:07:36;;;;;;;21.13;11.87;;;0.10;99.90;;;;;;5051305;28;20953;-64
2022/12/10 04:10:04;;;;;;;20.30;11.30;;;0.10;99.90;;;;;;5051726;28;20484;-64
2022/12/10 04:12:30;;;;;;;24.87;11.17;;;0.10;99.90;;;;;;5051975;28;20456;-65
2022/12/10 04:17:41;;;;;;;26.70;13.43;;;0.10;99.90;;;;;;5044966;28;20567;-65
2022/12/10 04:26:51;;;;;;;26.13;12.80;;;0.10;99.90;;;;;;5051410;28;20484;-65
2022/12/10 04:28:26;;;;;;;21.93;11.97;;;0.10;99.90;;;;;;5049442;28;20860;-65
2022/12/10 04:30:52;;;;;;;20.07;12.57;;;0.10;99.90;;;;;;5051443;28;20462;-65
2022/12/10 04:33:19;;;;;;;19.30;11.20;;;0.10;99.90;;;;;;5051174;28;20568;-65
2022/12/10 04:35:46;;;;;;;23.80;12.50;;;0.10;99.90;;;;;;5050804;28;20475;-65
2022/12/10 04:38:14;;;;;;;20.33;11.80;;;0.10;99.90;;;;;;5051852;28;20507;-65
2022/12/10 04:40:40;;;;;;;25.33;12.07;;;0.20;99.90;;;;;;5051323;28;20451;-64
2022/12/10 04:43:07;;;;;;;21.00;12.03;;;0.20;99.90;;;;;;5051657;28;20600;-65
2022/12/10 04:45:35;;;;;;;25.47;12.93;;;0.10;99.90;;;;;;5050795;28;20475;-64
2022/12/10 04:48:02;;;;;;;21.53;11.97;;;0.10;99.90;;;;;;5050363;28;20487;-64
2022/12/10 04:50:28;;;;;;;21.37;11.83;;;0.10;99.90;;;;;;5051194;28;20509;-64
2022/12/10 04:52:55;;;;;;;24.20;11.83;;;0.10;99.90;;;;;;5051200;28;20492;-64
2022/12/10 04:55:23;;;;;;;21.37;13.07;;;0.10;99.90;;;;;;5050953;28;20556;-64
2022/12/10 04:57:50;;;;;;;20.23;12.10;;;0.10;99.90;;;;;;5051193;28;20989;-64
2022/12/10 05:00:17;;;;;;;22.37;12.30;;;0.10;99.90;;;;;;5050693;28;20461;-65
2022/12/10 05:02:43;;;;;;;22.20;11.77;;;0.10;99.90;;;;;;5042635;28;20454;-65
2022/12/10 05:05:10;;;;;;;21.80;11.10;;;0.10;99.90;;;;;;5051130;28;20471;-64
2022/12/10 05:07:37;;;;;;;20.50;11.43;;;0.10;99.90;;;;;;5051063;28;20971;-64
2022/12/10 05:10:04;;;;;;;24.13;12.63;;;0.00;99.90;;;;;;5050982;28;20825;-65
2022/12/10 05:12:32;;;;;;;21.50;12.57;;;0.00;99.90;;;;;;5050620;28;20461;-64
2022/12/10 05:14:59;;;;;;;20.73;11.33;;;0.00;99.90;;;;;;5050382;28;20467;-64
2022/12/10 05:17:25;;;;;;;28.33;12.40;;;0.00;99.90;;;;;;5050953;28;20480;-64
2022/12/10 05:19:52;;;;;;;21.33;12.23;;;0.00;99.90;;;;;;5050994;28;20456;-65
2022/12/10 05:25:03;;;;;;;24.70;12.50;;;-0.10;99.90;;;;;;5050764;28;20818;-65
2022/12/10 05:27:33;;;;;;;25.17;13.00;;;-0.10;99.90;;;;;;5050480;28;20459;-65
2022/12/10 05:30:00;;;;;;;22.87;12.10;;;-0.10;99.90;;;;;;5050772;28;20453;-64
2022/12/10 05:32:26;;;;;;;24.73;12.63;;;-0.10;99.90;;;;;;5050641;28;20504;-64
2022/12/10 05:34:53;;;;;;;22.23;12.27;;;-0.10;99.90;;;;;;5050727;28;20491;-65
2022/12/10 05:37:20;;;;;;;22.77;12.90;;;-0.10;99.90;;;;;;5050372;28;20461;-65
2022/12/10 05:39:48;;;;;;;26.23;13.03;;;-0.10;99.90;;;;;;5050765;28;20459;-65
2022/12/10 05:42:14;;;;;;;26.10;12.97;;;-0.10;99.90;;;;;;5050287;28;20861;-65
2022/12/10 05:44:42;;;;;;;22.80;12.13;;;-0.10;99.90;;;;;;5050782;28;20498;-64
2022/12/10 05:47:09;;;;;;;24.53;12.43;;;-0.10;99.90;;;;;;5050141;28;20500;-65
2022/12/10 05:49:36;;;;;;;23.20;12.37;;;-0.10;99.90;;;;;;5050686;28;20451;-64
2022/12/10 05:52:02;;;;;;;23.17;13.70;;;-0.10;99.90;;;;;;5050477;28;20892;-66
2022/12/10 05:54:29;;;;;;;26.00;12.80;;;-0.20;99.90;;;;;;5050393;28;20497;-64
2022/12/10 05:56:56;;;;;;;22.37;12.53;;;-0.20;99.90;;;;;;5043141;28;20468;-65
2022/12/10 05:59:22;;;;;;;22.77;12.60;;;-0.20;99.90;;;;;;5053550;28;20453;-65
2022/12/10 06:01:50;;;;;;;24.70;12.00;;;-0.20;99.90;;;;;;5053510;28;20468;-65
2022/12/10 06:04:17;;;;;;;25.73;13.00;;;-0.20;99.90;;;;;;5053862;28;20509;-65
2022/12/10 06:06:46;;;;;;;26.27;13.13;;;-0.20;99.90;;;;;;5053686;28;20457;-64
2022/12/10 06:09:14;;;;;;;23.50;12.70;;;-0.20;99.90;;;;;;5053361;28;20464;-65
2022/12/10 06:11:41;;;;;;;23.83;12.80;;;-0.20;99.90;;;;;;5053984;28;20858;-65
2022/12/10 06:14:08;;;;;;;25.33;12.90;;;-0.20;99.90;;;;;;5053912;28;20495;-64
2022/12/10 06:16:34;;;;;;;21.07;11.53;;;-0.30;99.90;;;;;;5052488;28;20461;-64
2022/12/10 06:19:02;;;;;;;22.80;12.00;;;-0.30;99.90;;;;;;5053762;28;20887;-64
2022/12/10 06:21:29;;;;;;;27.07;13.90;;;-0.30;99.90;;;;;;5053751;28;20456;-64
2022/12/10 06:23:55;;;;;;;27.43;13.67;;;-0.30;99.90;;;;;;5052961;28;20479;-65
2022/12/10 06:26:25;;;;;;;24.77;13.57;;;-0.30;99.90;;;;;;5053674;28;20451;-64
2022/12/10 06:28:52;;;;;;;24.47;13.80;;;-0.20;99.90;;;;;;5053742;28;20460;-64
2022/12/10 06:31:20;;;;;;;23.80;12.97;;;-0.20;99.90;;;;;;5053430;28;20456;-64
2022/12/10 06:33:48;;;;;;;26.73;13.37;;;-0.20;99.90;;;;;;5053705;28;20487;-64
2022/12/10 06:36:17;;;;;;;25.10;14.87;;;-0.20;99.90;;;;;;5052572;28;20457;-64
2022/12/10 06:38:45;;;;;;;20.00;12.00;;;-0.20;99.90;;;;;;5052947;28;20487;-64
2022/12/10 06:41:14;;;;;;;25.50;12.73;;;-0.20;99.90;;;;;;5052301;28;21056;-73
2022/12/10 06:43:40;;;;;;;29.77;14.50;;;-0.10;99.90;;;;;;5052421;28;20455;-75
2022/12/10 06:46:08;;;;;;;25.43;12.80;;;0.10;99.90;;;;;;5050207;28;20477;-75
2022/12/10 06:48:35;;;;;;;25.37;13.03;;;0.30;99.90;;;;;;5047486;28;20474;-75
2022/12/10 06:51:06;;;;;;;21.80;12.67;;;0.30;99.90;;;;;;5048014;28;20482;-75
2022/12/10 06:53:36;;;;;;;22.25;13.63;;;0.30;99.90;;;;;;5048579;28;20444;-66
2022/12/10 06:56:04;;;;;;;24.57;13.00;;;0.30;99.90;;;;;;5048877;28;21070;-66
2022/12/10 06:58:32;;;;;;;29.40;13.03;;;0.20;99.90;;;;;;5049368;28;20457;-66
2022/12/10 07:01:04;;;;;;;26.27;13.03;;;0.10;99.90;;;;;;5049196;28;20799;-66
2022/12/10 07:03:30;;;;;;;25.53;12.83;;;0.10;99.90;;;;;;5048932;28;20481;-66
2022/12/10 07:05:58;;;;;;;25.23;13.20;;;0.00;99.90;;;;;;5049361;28;20517;-66
2022/12/10 07:08:25;;;;;;;26.17;12.40;;;0.00;99.90;;;;;;5049019;28;20968;-67
2022/12/10 07:10:53;;;;;;;22.50;12.17;;;0.00;99.90;;;;;;5048820;28;21038;-66
2022/12/10 07:13:19;;;;;;;23.47;12.27;;;0.00;99.90;;;;;;5049454;28;20465;-66
2022/12/10 07:15:46;;;;;;;25.33;13.53;;;0.00;99.90;;;;;;5048854;28;20533;-67
2022/12/10 07:18:13;;;;;;;24.93;13.40;;;0.00;99.90;;;;;;5049199;28;20462;-67
2022/12/10 07:20:39;;;;;;;26.20;13.87;;;0.00;99.90;;;;;;5049303;28;20454;-66
2022/12/10 07:23:06;;;;;;;25.80;13.50;;;-0.10;99.90;;;;;;5049019;28;21232;-66
2022/12/10 07:25:33;;;;;;;27.30;13.90;;;-0.10;99.90;;;;;;5048471;28;20478;-66
2022/12/10 07:28:01;;;;;;;26.23;13.33;;;-0.10;99.90;;;;;;5049525;28;20460;-66
2022/12/10 07:30:28;;;;;;;28.33;14.03;;;-0.10;99.90;;;;;;5049016;28;20464;-66
2022/12/10 07:32:54;;;;;;;22.83;13.57;;;-0.10;99.90;;;;;;5049652;28;20490;-66
2022/12/10 07:35:21;;;;;;;25.40;13.27;;;0.00;99.90;;;;;;5045134;28;20913;-66
2022/12/10 07:37:48;;;;;;;26.30;13.80;;;0.00;99.90;;;;;;5051081;28;20461;-66
2022/12/10 07:40:14;;;;;;;25.37;13.10;;;0.00;99.90;;;;;;5051189;28;20478;-66
2022/12/10 07:42:41;;;;;;;27.93;13.83;;;0.00;99.90;;;;;;5052075;28;20459;-66
2022/12/10 07:45:10;;;;;;;27.80;14.17;;;0.00;99.90;;;;;;5051423;28;20471;-66
2022/12/10 07:47:38;;;;;;;33.67;15.03;;;0.00;99.90;;;;;;5052215;28;20460;-66
2022/12/10 07:50:06;;;;;;;26.40;13.90;;;0.00;99.90;;;;;;5051649;28;20959;-66
2022/12/10 07:52:33;;;;;;;24.53;13.53;;;0.00;99.90;;;;;;5050045;28;20467;-67
2022/12/10 07:55:00;;;;;;;28.90;14.10;;;0.10;99.90;;;;;;5051739;28;20496;-65
2022/12/10 07:57:26;;;;;;;23.10;13.73;;;0.10;99.90;;;;;;5052288;28;20532;-65
2022/12/10 07:59:53;;;;;;;27.20;13.93;;;0.10;99.90;;;;;;5050650;28;20461;-68
2022/12/10 08:02:22;;;;;;;34.57;15.10;;;0.10;99.90;;;;;;5049863;28;20460;-67
2022/12/10 08:04:49;;;;;;;33.37;14.47;;;0.10;99.90;;;;;;5046625;28;20574;-66
2022/12/10 08:07:15;;;;;;;21.53;12.97;;;0.10;99.90;;;;;;5050178;28;20462;-67
2022/12/10 08:09:42;;;;;;;27.80;14.00;;;0.20;99.90;;;;;;5045135;28;20463;-66
2022/12/10 08:12:09;;;;;;;27.33;14.70;;;0.20;99.90;;;;;;5045950;28;20451;-66
2022/12/10 08:14:35;;;;;;;33.50;15.20;;;0.20;99.90;;;;;;5051618;28;20487;-67
2022/12/10 08:17:02;;;;;;;24.30;13.93;;;0.20;99.90;;;;;;5050376;28;20457;-66
2022/12/10 08:19:30;;;;;;;31.53;14.10;;;0.30;99.90;;;;;;5051262;28;20455;-67
2022/12/10 08:21:57;;;;;;;25.63;14.23;;;0.30;99.90;;;;;;5050127;28;20455;-67
2022/12/10 08:24:23;;;;;;;26.07;13.70;;;0.30;99.90;;;;;;5049280;28;21206;-68
2022/12/10 08:26:50;;;;;;;27.17;14.23;;;0.30;99.90;;;;;;5050294;28;20960;-67
2022/12/10 08:29:17;;;;;;;24.03;13.07;;;0.30;99.90;;;;;;5049468;28;20451;-67
2022/12/10 08:31:43;;;;;;;25.20;13.40;;;0.40;99.90;;;;;;5049575;28;20610;-66
2022/12/10 08:34:13;;;;;;;26.03;14.10;;;0.40;99.90;;;;;;5047212;28;20493;-67
2022/12/10 08:36:41;;;;;;;26.20;12.97;;;0.40;99.90;;;;;;5047868;28;20459;-66
2022/12/10 08:39:10;;;;;;;27.37;14.23;;;0.40;99.90;;;;;;5049377;28;20895;-66
2022/12/10 08:41:37;;;;;;;29.87;14.37;;;0.40;99.90;;;;;;5047529;28;20449;-66
2022/12/10 08:44:04;;;;;;;21.13;13.23;;;0.50;99.90;;;;;;5049392;28;21000;-66
2022/12/10 08:46:30;;;;;;;27.10;14.00;;;0.50;99.90;;;;;;5047104;28;20982;-65
2022/12/10 08:48:57;;;;;;;22.10;13.97;;;0.50;99.90;;;;;;5049967;28;21220;-67
2022/12/10 08:51:24;;;;;;;23.43;13.10;;;0.70;99.90;;;;;;5048387;28;20459;-68
2022/12/10 08:53:52;;;;;;;21.30;12.73;;;0.60;99.90;;;;;;5049994;28;20450;-68
2022/12/10 08:56:19;;;;;;;25.80;13.70;;;0.60;99.90;;;;;;5049705;28;20460;-67
2022/12/10 08:58:46;;;;;;;24.10;13.53;;;0.60;99.90;;;;;;5049917;28;20974;-67
2022/12/10 09:01:14;;;;;;;29.33;15.03;;;0.50;99.90;;;;;;5050232;28;20993;-68
2022/12/10 09:03:41;;;;;;;27.00;14.53;;;0.50;99.90;;;;;;5049900;28;20459;-67
2022/12/10 09:06:11;;;;;;;20.30;12.33;;;0.40;99.90;;;;;;5049860;28;20968;-68
2022/12/10 09:08:37;;;;;;;26.57;13.90;;;0.40;99.90;;;;;;5050564;28;20460;-67
2022/12/10 09:11:10;;;;;;;25.90;13.20;;;0.50;99.90;;;;;;5049280;28;20458;-68
2022/12/10 09:13:37;;;;;;;25.87;13.30;;;0.50;99.90;;;;;;5049733;28;20494;-68
2022/12/10 09:16:05;;;;;;;20.80;11.80;;;0.50;99.90;;;;;;5049879;28;20580;-67
2022/12/10 09:18:32;;;;;;;24.57;13.27;;;0.60;99.90;;;;;;5049620;28;20969;-67
2022/12/10 09:20:58;;;;;;;26.77;14.80;;;0.60;99.90;;;;;;5050876;28;20456;-67
2022/12/10 09:23:25;;;;;;;24.37;12.70;;;0.60;99.90;;;;;;5050119;28;20504;-67
2022/12/10 09:25:52;;;;;;;25.80;13.73;;;0.60;99.90;;;;;;5048814;28;20530;-66
2022/12/10 09:28:20;;;;;;;25.50;13.93;;;0.50;99.90;;;;;;5048581;28;22059;-66
2022/12/10 09:30:56;;;;;;;27.23;13.23;;;0.50;99.90;;;;;;5049320;28;20466;-66
2022/12/10 09:33:23;;;;;;;29.53;14.37;;;0.60;99.90;;;;;;5050099;28;20454;-68
2022/12/10 09:35:49;;;;;;;22.20;12.97;;;0.60;99.90;;;;;;5052909;28;20502;-66
2022/12/10 09:38:16;;;;;;;27.27;15.43;;;0.70;99.90;;;;;;5052840;28;20951;-67
2022/12/10 09:40:47;;;;;;;27.50;15.10;;;0.80;99.90;;;;;;5053448;28;20485;-66
2022/12/10 09:43:22;;;;;;;32.43;14.40;;;0.80;99.90;;;;;;5053521;28;20459;-66
2022/12/10 09:46:00;;;;;;;24.70;14.70;;;0.90;99.90;;;;;;5052379;28;20485;-66
2022/12/10 09:48:33;;;;;;;28.83;15.83;;;1.00;99.90;;;;;;5047821;28;20457;-66
2022/12/10 09:51:06;;;;;;;29.13;15.30;;;1.00;99.90;;;;;;5053060;28;20454;-69
2022/12/10 09:53:34;;;;;;;29.33;15.37;;;0.90;99.90;;;;;;5053110;28;20460;-68
2022/12/10 09:56:03;;;;;;;31.17;15.43;;;0.80;99.90;;;;;;5052765;28;20549;-68
2022/12/10 09:58:31;;;;;;;30.27;16.23;;;0.80;99.90;;;;;;5052758;28;20460;-68
2022/12/10 10:01:00;;;;;;;30.10;16.03;;;0.70;99.90;;;;;;5053316;28;20867;-67
2022/12/10 10:03:27;;;;;;;27.93;14.73;;;0.60;99.90;;;;;;5053596;28;20449;-68
2022/12/10 10:05:56;;;;;;;32.40;15.43;;;0.60;99.90;;;;;;5051727;28;20490;-67
2022/12/10 10:08:29;;;;;;;30.63;16.50;;;0.60;99.90;;;;;;5053617;28;20494;-67
2022/12/10 10:10:56;;;;;;;30.53;15.43;;;0.60;99.90;;;;;;5052632;28;20960;-66
2022/12/10 10:13:32;;;;;;;28.53;14.73;;;0.70;99.90;;;;;;5052357;28;20450;-66
2022/12/10 10:16:14;;;;;;;25.23;14.03;;;0.80;99.90;;;;;;5046754;28;20505;-66
2022/12/10 10:18:44;;;;;;;31.10;14.47;;;0.90;99.90;;;;;;5048122;28;21008;-66
2022/12/10 10:21:19;;;;;;;26.67;14.20;;;0.90;99.90;;;;;;5044403;28;20733;-66
2022/12/10 10:23:47;;;;;;;27.33;15.40;;;1.00;99.90;;;;;;5043751;28;20457;-65
2022/12/10 10:26:13;;;;;;;25.57;14.43;;;1.00;99.90;;;;;;5046562;28;20450;-66
2022/12/10 10:28:42;;;;;;;24.27;13.43;;;1.10;99.90;;;;;;5049934;28;20507;-66
2022/12/10 10:31:19;;;;;;;24.27;13.53;;;1.20;99.90;;;;;;5052948;28;20458;-67
2022/12/10 10:33:56;;;;;;;27.10;14.03;;;1.20;99.90;;;;;;5052917;28;20452;-66
2022/12/10 10:36:25;;;;;;;25.57;12.60;;;1.20;99.90;;;;;;5051728;28;20490;-65
2022/12/10 10:38:51;;;;;;;24.23;13.03;;;1.20;99.90;;;;;;5051277;28;20510;-66
2022/12/10 10:41:18;;;;;;;25.43;14.13;;;1.20;99.90;;;;;;5052591;28;20454;-66
2022/12/10 10:43:47;;;;;;;25.93;13.43;;;1.40;99.90;;;;;;5052377;28;20452;-66
2022/12/10 10:46:16;;;;;;;23.60;13.20;;;1.50;99.90;;;;;;5050409;28;20837;-66
2022/12/10 10:48:42;;;;;;;24.67;13.67;;;1.80;99.90;;;;;;5051574;28;20458;-67
2022/12/10 10:51:20;;;;;;;22.27;12.50;;;2.40;99.90;;;;;;5051753;28;20455;-67
2022/12/10 10:53:49;;;;;;;21.43;11.90;;;2.90;99.90;;;;;;5051992;28;20457;-67
2022/12/10 10:56:20;;;;;;;17.17;11.30;;;3.30;99.90;;;;;;5051712;28;20496;-67
2022/12/10 10:58:54;;;;;;;22.00;12.00;;;3.60;99.90;;;;;;5052149;28;20492;-66
2022/12/10 11:01:21;;;;;;;21.57;11.80;;;3.90;99.90;;;;;;5052135;28;20513;-67
2022/12/10 11:03:50;;;;;;;18.90;11.67;;;4.30;99.90;;;;;;5052389;28;20467;-66
2022/12/10 11:06:18;;;;;;;15.80;10.67;;;4.60;99.90;;;;;;5050912;28;20995;-67
2022/12/10 11:08:47;;;;;;;18.17;10.70;;;4.70;99.90;;;;;;5052306;28;20995;-66
2022/12/10 11:11:32;;;;;;;16.67;10.33;;;4.60;99.90;;;;;;5047274;28;21741;-66
2022/12/10 11:14:24;;;;;;;17.30;10.83;;;4.70;99.90;;;;;;5048541;28;20535;-66
2022/12/10 11:16:51;;;;;;;19.50;11.23;;;4.90;99.90;;;;;;5048137;28;20612;-67
2022/12/10 11:19:21;;;;;;;21.27;11.57;;;5.00;99.90;;;;;;5048604;28;20464;-67
2022/12/10 11:21:48;;;;;;;17.90;10.70;;;5.10;99.90;;;;;;5049530;28;20836;-67
2022/12/10 11:24:19;;;;;;;19.53;11.30;;;5.30;99.90;;;;;;5050087;28;20474;-68
2022/12/10 11:27:00;;;;;;;18.70;11.90;;;5.40;99.90;;;;;;5048709;28;20959;-67
2022/12/10 11:29:49;;;;;;;17.53;12.03;;;5.60;99.90;;;;;;5052805;28;20456;-67
2022/12/10 11:32:35;;;;;;;20.97;11.20;;;5.80;99.90;;;;;;5050266;28;20954;-67
2022/12/10 11:35:11;;;;;;;17.10;10.93;;;6.00;99.90;;;;;;5046312;28;21011;-67
2022/12/10 11:37:44;;;;;;;17.13;10.33;;;6.10;99.90;;;;;;5048310;28;20457;-68
2022/12/10 11:40:28;;;;;;;18.23;10.77;;;6.10;99.90;;;;;;5051280;28;20457;-67
2022/12/10 11:43:08;;;;;;;18.60;11.70;;;5.80;99.90;;;;;;5051442;28;20464;-67
2022/12/10 11:45:48;;;;;;;17.33;10.70;;;5.40;99.90;;;;;;5051691;28;20476;-67
2022/12/10 11:48:30;;;;;;;17.77;11.27;;;5.30;99.90;;;;;;5051387;28;20549;-67
2022/12/10 11:51:02;;;;;;;22.30;13.30;;;5.40;99.90;;;;;;5051963;28;20990;-67
2022/12/10 11:53:51;;;;;;;18.87;10.70;;;5.50;99.90;;;;;;5051190;28;20484;-68
2022/12/10 11:56:25;;;;;;;16.63;10.47;;;5.60;99.90;;;;;;5050739;28;20929;-68
2022/12/10 11:59:05;;;;;;;16.10;10.47;;;5.80;99.90;;;;;;5050926;28;20492;-68
2022/12/10 12:01:50;;;;;;;16.23;10.27;;;5.40;99.90;;;;;;5050837;28;21018;-67
2022/12/10 12:04:27;;;;;;;17.87;11.47;;;5.00;99.90;;;;;;5051092;28;20555;-68
2022/12/10 12:07:11;;;;;;;16.03;9.90;;;4.70;99.90;;;;;;5050381;28;20448;-67
2022/12/10 12:09:52;;;;;;;15.60;10.60;;;4.80;99.90;;;;;;5050708;28;20461;-67
2022/12/10 12:12:28;;;;;;;16.93;10.47;;;5.00;99.90;;;;;;5050100;28;20466;-67
2022/12/10 12:15:00;;;;;;;15.85;9.98;;;5.10;99.90;;;;;;5047671;28;20447;-67
2022/12/10 12:17:31;;;;;;;16.80;10.80;;;5.30;99.90;;;;;;5051729;28;20212;-68
2022/12/10 12:20:02;;;;;;;12.87;9.87;;;5.50;99.90;;;;;;5049333;28;20459;-67
2022/12/10 12:22:33;;;;;;;15.77;9.90;;;5.60;99.90;;;;;;5049652;28;20452;-68
2022/12/10 12:25:06;;;;;;;17.87;10.50;;;5.40;99.90;;;;;;5051311;28;20889;-67
2022/12/10 12:27:39;;;;;;;14.83;10.23;;;5.40;99.90;;;;;;5050948;28;20464;-67
2022/12/10 12:30:14;;;;;;;13.13;9.53;;;5.50;99.90;;;;;;5045470;28;20878;-67
2022/12/10 12:32:50;;;;;;;18.80;11.83;;;5.60;99.90;;;;;;5048832;28;20454;-67
2022/12/10 12:35:20;;;;;;;14.50;9.87;;;5.60;99.90;;;;;;5049666;28;20485;-67
2022/12/10 12:37:52;;;;;;;13.97;9.20;;;5.50;99.90;;;;;;5050072;28;20456;-68
2022/12/10 12:40:28;;;;;;;13.20;9.67;;;5.50;99.90;;;;;;5047835;28;20461;-68
2022/12/10 12:42:59;;;;;;;13.13;9.03;;;5.50;99.90;;;;;;5049550;28;20461;-68
2022/12/10 12:45:34;;;;;;;14.65;10.10;;;5.40;99.90;;;;;;5049774;28;20913;-68
2022/12/10 12:48:19;;;;;;;13.23;9.30;;;5.50;99.90;;;;;;5049795;28;20221;-68
2022/12/10 12:50:50;;;;;;;14.80;10.37;;;5.40;99.90;;;;;;5051131;28;20863;-68
2022/12/10 12:53:20;;;;;;;15.50;10.43;;;5.30;99.90;;;;;;5048669;28;20447;-68
2022/12/10 12:55:56;;;;;;;13.77;10.03;;;5.30;99.90;;;;;;5046887;28;20231;-67